Terminal Aerodrome Forecast
Issued by NWS

Home | Current Version | Previous Version | Graphics & Text | Print | Product List | Glossary On
Versions: 1 2 3 4 5 6 7 8 9 10 11 12 13
000
FTUS45 KRIW 220500
TAFBPI
TAF
KBPI 220539Z 2206/2306 35017G25KT P6SM SCT035 BKN080
     FM220900 33011KT P6SM VCSH SCT030 BKN050
     FM221900 33014G24KT P6SM VCSH BKN050
     FM230200 34012G18KT P6SM SCT060=

USA.gov is the U.S. government's official web portal to all federal, state and local government web resources and services.